Rome Heights, Illinois
Current Conditions -  °F | °C
As of 6:55 AM on Friday 24 Oct 2014 (Local Time) from KC75 Reporting Station
Haze Haze  
Wind Chill: 40°   Ceiling: Unl
Heat Index: 40°   Visibility: 5mi
Dew Point: 39°   Wind: 0mph
Humidity: 95%   Direction: NA
Pressure: 30.07"   Gusts: NA
Location:  40.915°N, 89.5303°W
Report Text: KC75 241155Z AUTO 00000KT 5SM BR CLR 05/04 A3007 RMK AO2 T00470039 10124 20047
Loading
Personal Weather Stations






























Interactive Weather Map New forecast layout! Learn more

10-Day Weather Forecast

Advertisements
Track Severe Weather on mobile